sensor_id;sensor_type;location;lat;lon;timestamp;temperature;humidity
37310;DHT22;23195;47.744;7.358;2022-12-10T06:45:56;1.60;99.90
37310;DHT22;23195;47.744;7.358;2022-12-10T06:48:32;2.30;99.90
37310;DHT22;23195;47.744;7.358;2022-12-10T06:51:01;1.60;99.90
37310;DHT22;23195;47.744;7.358;2022-12-10T06:53:36;1.50;99.90
37310;DHT22;23195;47.744;7.358;2022-12-10T06:56:06;1.60;99.90
37310;DHT22;23195;47.744;7.358;2022-12-10T06:58:33;1.50;99.90
37310;DHT22;23195;47.744;7.358;2022-12-10T07:01:28;1.50;99.90
37310;DHT22;23195;47.744;7.358;2022-12-10T07:04:01;1.60;99.90
37310;DHT22;23195;47.744;7.358;2022-12-10T07:06:36;1.60;99.90
37310;DHT22;23195;47.744;7.358;2022-12-10T07:09:35;1.50;99.90
37310;DHT22;23195;47.744;7.358;2022-12-10T07:12:16;1.60;99.90
37310;DHT22;23195;47.744;7.358;2022-12-10T07:18:03;1.60;99.90
37310;DHT22;23195;47.744;7.358;2022-12-10T07:20:30;0.70;99.90
37310;DHT22;23195;47.744;7.358;2022-12-10T07:22:55;1.50;99.90
37310;DHT22;23195;47.744;7.358;2022-12-10T07:25:21;1.60;99.90
37310;DHT22;23195;47.744;7.358;2022-12-10T07:27:52;1.60;99.90
37310;DHT22;23195;47.744;7.358;2022-12-10T07:30:18;1.50;99.90
37310;DHT22;23195;47.744;7.358;2022-12-10T07:32:44;1.60;99.90
37310;DHT22;23195;47.744;7.358;2022-12-10T07:35:12;1.40;99.90
37310;DHT22;23195;47.744;7.358;2022-12-10T07:37:38;0.30;99.90
37310;DHT22;23195;47.744;7.358;2022-12-10T07:40:04;1.50;99.90
37310;DHT22;23195;47.744;7.358;2022-12-10T07:42:30;1.60;99.90
37310;DHT22;23195;47.744;7.358;2022-12-10T07:44:56;1.50;99.90
37310;DHT22;23195;47.744;7.358;2022-12-10T07:47:22;1.60;99.90
37310;DHT22;23195;47.744;7.358;2022-12-10T07:49:51;1.70;99.90
37310;DHT22;23195;47.744;7.358;2022-12-10T07:52:20;1.80;99.90
37310;DHT22;23195;47.744;7.358;2022-12-10T07:54:51;1.80;99.90
37310;DHT22;23195;47.744;7.358;2022-12-10T07:57:17;1.70;99.90
37310;DHT22;23195;47.744;7.358;2022-12-10T07:59:48;1.70;99.90
37310;DHT22;23195;47.744;7.358;2022-12-10T08:02:14;2.10;99.90
37310;DHT22;23195;47.744;7.358;2022-12-10T08:04:40;1.70;99.90
37310;DHT22;23195;47.744;7.358;2022-12-10T08:07:05;1.60;99.90
37310;DHT22;23195;47.744;7.358;2022-12-10T08:09:32;1.60;99.90
37310;DHT22;23195;47.744;7.358;2022-12-10T08:11:58;1.60;99.90
37310;DHT22;23195;47.744;7.358;2022-12-10T08:14:28;1.60;99.90
37310;DHT22;23195;47.744;7.358;2022-12-10T08:16:54;1.70;99.90
37310;DHT22;23195;47.744;7.358;2022-12-10T08:19:20;1.70;99.90
37310;DHT22;23195;47.744;7.358;2022-12-10T08:21:46;1.70;99.90
37310;DHT22;23195;47.744;7.358;2022-12-10T08:24:11;1.90;99.90
37310;DHT22;23195;47.744;7.358;2022-12-10T08:26:37;1.80;99.90
37310;DHT22;23195;47.744;7.358;2022-12-10T08:29:04;1.90;99.90
37310;DHT22;23195;47.744;7.358;2022-12-10T08:31:32;1.90;99.90
37310;DHT22;23195;47.744;7.358;2022-12-10T08:33:58;1.90;99.90
37310;DHT22;23195;47.744;7.358;2022-12-10T08:36:24;2.00;99.90
37310;DHT22;23195;47.744;7.358;2022-12-10T08:38:50;1.90;99.90
37310;DHT22;23195;47.744;7.358;2022-12-10T08:41:45;2.00;99.90
37310;DHT22;23195;47.744;7.358;2022-12-10T08:44:46;1.80;99.90
37310;DHT22;23195;47.744;7.358;2022-12-10T08:47:45;1.90;99.90
37310;DHT22;23195;47.744;7.358;2022-12-10T08:50:38;1.90;99.90
37310;DHT22;23195;47.744;7.358;2022-12-10T08:53:03;1.90;99.90
37310;DHT22;23195;47.744;7.358;2022-12-10T08:55:29;2.10;99.90
37310;DHT22;23195;47.744;7.358;2022-12-10T08:57:58;2.10;99.90
37310;DHT22;23195;47.744;7.358;2022-12-10T09:00:25;2.00;99.90
37310;DHT22;23195;47.744;7.358;2022-12-10T09:02:51;2.10;99.90
37310;DHT22;23195;47.744;7.358;2022-12-10T09:05:20;2.10;99.90
37310;DHT22;23195;47.744;7.358;2022-12-10T09:07:45;2.10;99.90
37310;DHT22;23195;47.744;7.358;2022-12-10T09:10:11;2.10;99.90
37310;DHT22;23195;47.744;7.358;2022-12-10T09:12:38;2.10;99.90
37310;DHT22;23195;47.744;7.358;2022-12-10T09:15:05;2.00;99.90
37310;DHT22;23195;47.744;7.358;2022-12-10T09:17:57;2.00;99.90
37310;DHT22;23195;47.744;7.358;2022-12-10T09:20:30;2.00;99.90
37310;DHT22;23195;47.744;7.358;2022-12-10T09:23:01;2.20;99.90
37310;DHT22;23195;47.744;7.358;2022-12-10T09:25:29;2.10;99.90
37310;DHT22;23195;47.744;7.358;2022-12-10T09:27:57;2.00;99.90
37310;DHT22;23195;47.744;7.358;2022-12-10T09:30:23;2.10;99.90
37310;DHT22;23195;47.744;7.358;2022-12-10T09:32:49;2.20;99.90
37310;DHT22;23195;47.744;7.358;2022-12-10T09:35:15;2.20;99.90
37310;DHT22;23195;47.744;7.358;2022-12-10T09:37:50;2.30;99.90
37310;DHT22;23195;47.744;7.358;2022-12-10T09:40:19;2.30;99.90
37310;DHT22;23195;47.744;7.358;2022-12-10T09:43:06;2.40;99.90
37310;DHT22;23195;47.744;7.358;2022-12-10T09:53:40;2.40;99.90
37310;DHT22;23195;47.744;7.358;2022-12-10T09:56:39;2.10;99.90
37310;DHT22;23195;47.744;7.358;2022-12-10T09:59:40;2.30;99.90
37310;DHT22;23195;47.744;7.358;2022-12-10T10:02:20;2.30;99.90
37310;DHT22;23195;47.744;7.358;2022-12-10T10:04:47;2.30;99.90
37310;DHT22;23195;47.744;7.358;2022-12-10T10:07:31;2.30;99.90
37310;DHT22;23195;47.744;7.358;2022-12-10T10:10:03;2.30;99.90
37310;DHT22;23195;47.744;7.358;2022-12-10T10:12:31;2.50;99.90
37310;DHT22;23195;47.744;7.358;2022-12-10T10:15:20;1.30;99.90
37310;DHT22;23195;47.744;7.358;2022-12-10T10:17:47;2.40;99.90
37310;DHT22;23195;47.744;7.358;2022-12-10T10:20:15;2.50;99.90
37310;DHT22;23195;47.744;7.358;2022-12-10T10:22:41;2.60;99.90
37310;DHT22;23195;47.744;7.358;2022-12-10T10:25:18;2.60;99.90
37310;DHT22;23195;47.744;7.358;2022-12-10T10:27:44;2.70;99.90
37310;DHT22;23195;47.744;7.358;2022-12-10T10:30:16;2.70;99.90
37310;DHT22;23195;47.744;7.358;2022-12-10T10:32:45;2.50;99.90
37310;DHT22;23195;47.744;7.358;2022-12-10T10:35:26;3.00;99.90
37310;DHT22;23195;47.744;7.358;2022-12-10T10:38:06;2.50;99.90
37310;DHT22;23195;47.744;7.358;2022-12-10T10:40:40;2.40;99.90
37310;DHT22;23195;47.744;7.358;2022-12-10T10:43:14;2.40;99.90
37310;DHT22;23195;47.744;7.358;2022-12-10T10:45:44;2.40;99.90
37310;DHT22;23195;47.744;7.358;2022-12-10T10:48:19;2.20;99.90
37310;DHT22;23195;47.744;7.358;2022-12-10T10:50:48;2.40;99.90
37310;DHT22;23195;47.744;7.358;2022-12-10T10:56:15;2.30;99.90
37310;DHT22;23195;47.744;7.358;2022-12-10T11:01:53;2.30;99.90
37310;DHT22;23195;47.744;7.358;2022-12-10T11:04:37;2.30;99.90
37310;DHT22;23195;47.744;7.358;2022-12-10T11:07:38;2.30;99.90
37310;DHT22;23195;47.744;7.358;2022-12-10T11:10:12;2.30;99.90
37310;DHT22;23195;47.744;7.358;2022-12-10T11:12:40;2.30;99.90
37310;DHT22;23195;47.744;7.358;2022-12-10T11:15:34;2.40;99.90
37310;DHT22;23195;47.744;7.358;2022-12-10T11:18:01;2.50;99.90
37310;DHT22;23195;47.744;7.358;2022-12-10T11:20:40;2.30;99.90
37310;DHT22;23195;47.744;7.358;2022-12-10T11:23:12;2.10;99.90
37310;DHT22;23195;47.744;7.358;2022-12-10T11:25:57;2.30;99.90
37310;DHT22;23195;47.744;7.358;2022-12-10T11:34:36;2.20;99.90
37310;DHT22;23195;47.744;7.358;2022-12-10T11:37:18;2.30;99.90
37310;DHT22;23195;47.744;7.358;2022-12-10T11:51:42;2.50;99.90
37310;DHT22;23195;47.744;7.358;2022-12-10T11:54:33;2.50;99.90
37310;DHT22;23195;47.744;7.358;2022-12-10T12:02:55;2.30;99.90
37310;DHT22;23195;47.744;7.358;2022-12-10T12:06:09;2.30;99.90
37310;DHT22;23195;47.744;7.358;2022-12-10T12:14:14;1.80;99.90
37310;DHT22;23195;47.744;7.358;2022-12-10T12:19:45;2.60;99.90
37310;DHT22;23195;47.744;7.358;2022-12-10T12:25:46;2.70;99.90
37310;DHT22;23195;47.744;7.358;2022-12-10T12:31:12;2.40;99.90
37310;DHT22;23195;47.744;7.358;2022-12-10T12:33:49;1.50;99.90
37310;DHT22;23195;47.744;7.358;2022-12-10T12:36:29;2.40;99.90
37310;DHT22;23195;47.744;7.358;2022-12-10T12:39:14;2.50;99.90
37310;DHT22;23195;47.744;7.358;2022-12-10T12:42:00;2.50;99.90
37310;DHT22;23195;47.744;7.358;2022-12-10T12:47:34;2.50;99.90
37310;DHT22;23195;47.744;7.358;2022-12-10T12:50:04;2.50;99.90
37310;DHT22;23195;47.744;7.358;2022-12-10T12:52:46;2.60;99.90
37310;DHT22;23195;47.744;7.358;2022-12-10T12:57:54;2.70;99.90
37310;DHT22;23195;47.744;7.358;2022-12-10T13:00:27;2.60;99.90
37310;DHT22;23195;47.744;7.358;2022-12-10T13:03:18;3.70;99.90
37310;DHT22;23195;47.744;7.358;2022-12-10T13:05:45;2.60;99.90
37310;DHT22;23195;47.744;7.358;2022-12-10T13:10:56;2.70;99.90
37310;DHT22;23195;47.744;7.358;2022-12-10T13:13:34;2.80;99.90
37310;DHT22;23195;47.744;7.358;2022-12-10T13:19:33;2.70;99.90
37310;DHT22;23195;47.744;7.358;2022-12-10T13:22:06;2.60;99.90
37310;DHT22;23195;47.744;7.358;2022-12-10T13:27:18;2.20;99.90
37310;DHT22;23195;47.744;7.358;2022-12-10T13:46:27;2.20;99.90
37310;DHT22;23195;47.744;7.358;2022-12-10T13:49:05;2.20;99.90
37310;DHT22;23195;47.744;7.358;2022-12-10T13:52:11;2.20;99.90
37310;DHT22;23195;47.744;7.358;2022-12-10T13:55:18;2.10;99.90
37310;DHT22;23195;47.744;7.358;2022-12-10T14:01:03;2.20;99.90
37310;DHT22;23195;47.744;7.358;2022-12-10T14:06:41;2.20;99.90
37310;DHT22;23195;47.744;7.358;2022-12-10T14:09:23;2.30;99.90
37310;DHT22;23195;47.744;7.358;2022-12-10T14:11:58;2.40;99.90
37310;DHT22;23195;47.744;7.358;2022-12-10T14:14:34;2.40;99.90
37310;DHT22;23195;47.744;7.358;2022-12-10T14:17:14;2.40;99.90
37310;DHT22;23195;47.744;7.358;2022-12-10T14:19:45;2.20;99.90
37310;DHT22;23195;47.744;7.358;2022-12-10T14:22:18;2.20;99.90
37310;DHT22;23195;47.744;7.358;2022-12-10T14:24:49;2.30;99.90
37310;DHT22;23195;47.744;7.358;2022-12-10T14:27:26;2.20;99.90
37310;DHT22;23195;47.744;7.358;2022-12-10T14:30:23;2.20;99.90
37310;DHT22;23195;47.744;7.358;2022-12-10T14:32:50;2.20;99.90
37310;DHT22;23195;47.744;7.358;2022-12-10T14:35:22;2.20;99.90
37310;DHT22;23195;47.744;7.358;2022-12-10T14:37:49;2.10;99.90
37310;DHT22;23195;47.744;7.358;2022-12-10T14:42:48;2.10;99.90
37310;DHT22;23195;47.744;7.358;2022-12-10T14:45:17;2.10;99.90
37310;DHT22;23195;47.744;7.358;2022-12-10T14:47:43;2.00;99.90
37310;DHT22;23195;47.744;7.358;2022-12-10T14:50:13;2.00;99.90
37310;DHT22;23195;47.744;7.358;2022-12-10T14:52:42;2.00;99.90
37310;DHT22;23195;47.744;7.358;2022-12-10T14:55:16;2.00;99.90
37310;DHT22;23195;47.744;7.358;2022-12-10T14:58:04;2.00;99.90
37310;DHT22;23195;47.744;7.358;2022-12-10T15:00:30;1.90;99.90
37310;DHT22;23195;47.744;7.358;2022-12-10T15:02:59;1.90;99.90
37310;DHT22;23195;47.744;7.358;2022-12-10T15:05:35;1.40;99.90
37310;DHT22;23195;47.744;7.358;2022-12-10T15:08:07;1.60;99.90
37310;DHT22;23195;47.744;7.358;2022-12-10T15:10:42;1.70;99.90
37310;DHT22;23195;47.744;7.358;2022-12-10T15:13:22;1.60;99.90
37310;DHT22;23195;47.744;7.358;2022-12-10T15:15:54;1.50;99.90
37310;DHT22;23195;47.744;7.358;2022-12-10T15:20:59;1.60;99.90
37310;DHT22;23195;47.744;7.358;2022-12-10T15:28:35;1.70;99.90
37310;DHT22;23195;47.744;7.358;2022-12-10T15:33:54;1.60;99.90
37310;DHT22;23195;47.744;7.358;2022-12-10T15:36:46;2.20;99.90
37310;DHT22;23195;47.744;7.358;2022-12-10T15:39:15;1.70;99.90
37310;DHT22;23195;47.744;7.358;2022-12-10T15:44:37;1.70;99.90
37310;DHT22;23195;47.744;7.358;2022-12-10T15:47:23;1.60;99.90
37310;DHT22;23195;47.744;7.358;2022-12-10T15:50:12;1.70;99.90
37310;DHT22;23195;47.744;7.358;2022-12-10T15:52:49;1.00;99.90
37310;DHT22;23195;47.744;7.358;2022-12-10T15:55:19;1.70;99.90
37310;DHT22;23195;47.744;7.358;2022-12-10T15:57:56;1.60;99.90
37310;DHT22;23195;47.744;7.358;2022-12-10T16:00:25;1.50;99.90
37310;DHT22;23195;47.744;7.358;2022-12-10T16:03:27;1.20;99.90
37310;DHT22;23195;47.744;7.358;2022-12-10T16:05:55;1.60;99.90
37310;DHT22;23195;47.744;7.358;2022-12-10T16:08:28;1.50;99.90
37310;DHT22;23195;47.744;7.358;2022-12-10T16:10:57;1.60;99.90
37310;DHT22;23195;47.744;7.358;2022-12-10T16:13:30;1.60;99.90
37310;DHT22;23195;47.744;7.358;2022-12-10T16:16:11;1.60;99.90
37310;DHT22;23195;47.744;7.358;2022-12-10T16:18:40;1.50;99.90
37310;DHT22;23195;47.744;7.358;2022-12-10T16:21:16;1.50;99.90
37310;DHT22;23195;47.744;7.358;2022-12-10T16:24:14;2.30;99.90
37310;DHT22;23195;47.744;7.358;2022-12-10T16:26:43;1.10;99.90
37310;DHT22;23195;47.744;7.358;2022-12-10T16:29:09;1.20;99.90
37310;DHT22;23195;47.744;7.358;2022-12-10T16:31:41;1.60;99.90
37310;DHT22;23195;47.744;7.358;2022-12-10T16:34:10;1.70;99.90
37310;DHT22;23195;47.744;7.358;2022-12-10T16:36:42;1.60;99.90
37310;DHT22;23195;47.744;7.358;2022-12-10T16:39:08;1.60;99.90
37310;DHT22;23195;47.744;7.358;2022-12-10T16:41:34;1.20;99.90
37310;DHT22;23195;47.744;7.358;2022-12-10T16:44:03;1.50;99.90
37310;DHT22;23195;47.744;7.358;2022-12-10T16:46:34;1.40;99.90
37310;DHT22;23195;47.744;7.358;2022-12-10T16:49:00;1.40;99.90
37310;DHT22;23195;47.744;7.358;2022-12-10T16:51:28;1.30;99.90
37310;DHT22;23195;47.744;7.358;2022-12-10T16:53:56;1.30;99.90
37310;DHT22;23195;47.744;7.358;2022-12-10T16:56:31;1.20;99.90
37310;DHT22;23195;47.744;7.358;2022-12-10T16:58:59;1.20;99.90
37310;DHT22;23195;47.744;7.358;2022-12-10T17:01:27;1.30;99.90
37310;DHT22;23195;47.744;7.358;2022-12-10T17:03:54;1.20;99.90
37310;DHT22;23195;47.744;7.358;2022-12-10T17:06:21;1.20;99.90
37310;DHT22;23195;47.744;7.358;2022-12-10T17:08:48;1.20;99.90
37310;DHT22;23195;47.744;7.358;2022-12-10T17:11:23;1.70;99.90
37310;DHT22;23195;47.744;7.358;2022-12-10T17:14:29;1.20;99.90
37310;DHT22;23195;47.744;7.358;2022-12-10T17:16:57;1.20;99.90
37310;DHT22;23195;47.744;7.358;2022-12-10T17:19:27;1.20;99.90
37310;DHT22;23195;47.744;7.358;2022-12-10T17:21:56;1.20;99.90
37310;DHT22;23195;47.744;7.358;2022-12-10T17:24:25;1.20;99.90
37310;DHT22;23195;47.744;7.358;2022-12-10T17:26:52;1.20;99.90
37310;DHT22;23195;47.744;7.358;2022-12-10T17:29:29;1.30;99.90
37310;DHT22;23195;47.744;7.358;2022-12-10T17:31:58;1.40;99.90
37310;DHT22;23195;47.744;7.358;2022-12-10T17:34:24;1.40;99.90
37310;DHT22;23195;47.744;7.358;2022-12-10T17:36:51;0.10;99.90
37310;DHT22;23195;47.744;7.358;2022-12-10T17:39:19;1.40;99.90
37310;DHT22;23195;47.744;7.358;2022-12-10T17:41:45;1.50;99.90
37310;DHT22;23195;47.744;7.358;2022-12-10T17:44:11;1.50;99.90
37310;DHT22;23195;47.744;7.358;2022-12-10T17:46:40;1.60;99.90
37310;DHT22;23195;47.744;7.358;2022-12-10T17:49:06;0.70;99.90
37310;DHT22;23195;47.744;7.358;2022-12-10T17:51:32;1.40;99.90
37310;DHT22;23195;47.744;7.358;2022-12-10T17:53:58;0.70;99.90
37310;DHT22;23195;47.744;7.358;2022-12-10T17:56:27;1.40;99.90
37310;DHT22;23195;47.744;7.358;2022-12-10T17:58:56;1.40;99.90
37310;DHT22;23195;47.744;7.358;2022-12-10T18:01:22;1.40;99.90
37310;DHT22;23195;47.744;7.358;2022-12-10T18:03:52;1.50;99.90
37310;DHT22;23195;47.744;7.358;2022-12-10T18:06:28;1.40;99.90
37310;DHT22;23195;47.744;7.358;2022-12-10T18:08:57;1.50;99.90
37310;DHT22;23195;47.744;7.358;2022-12-10T18:11:34;1.60;99.90
37310;DHT22;23195;47.744;7.358;2022-12-10T18:14:05;1.50;99.90
37310;DHT22;23195;47.744;7.358;2022-12-10T18:16:35;1.50;99.90
37310;DHT22;23195;47.744;7.358;2022-12-10T18:19:06;1.00;99.90
37310;DHT22;23195;47.744;7.358;2022-12-10T18:21:32;1.50;99.90
37310;DHT22;23195;47.744;7.358;2022-12-10T18:23:58;1.40;99.90
37310;DHT22;23195;47.744;7.358;2022-12-10T18:26:25;1.50;99.90
37310;DHT22;23195;47.744;7.358;2022-12-10T18:28:52;1.40;99.90
37310;DHT22;23195;47.744;7.358;2022-12-10T18:31:22;1.50;99.90
37310;DHT22;23195;47.744;7.358;2022-12-10T18:34:00;1.40;99.90
37310;DHT22;23195;47.744;7.358;2022-12-10T18:36:31;1.40;99.90
37310;DHT22;23195;47.744;7.358;2022-12-10T18:39:00;1.40;99.90
37310;DHT22;23195;47.744;7.358;2022-12-10T18:41:27;1.50;99.90
37310;DHT22;23195;47.744;7.358;2022-12-10T18:43:53;1.40;99.90
37310;DHT22;23195;47.744;7.358;2022-12-10T18:46:28;1.10;99.90
37310;DHT22;23195;47.744;7.358;2022-12-10T18:48:55;0.30;99.90
37310;DHT22;23195;47.744;7.358;2022-12-10T18:51:22;1.50;99.90
37310;DHT22;23195;47.744;7.358;2022-12-10T18:53:50;1.50;99.90
37310;DHT22;23195;47.744;7.358;2022-12-10T18:56:22;1.50;99.90
37310;DHT22;23195;47.744;7.358;2022-12-10T18:58:52;1.40;99.90
37310;DHT22;23195;47.744;7.358;2022-12-10T19:01:20;1.30;99.90
37310;DHT22;23195;47.744;7.358;2022-12-10T19:03:48;1.30;99.90
37310;DHT22;23195;47.744;7.358;2022-12-10T19:06:22;1.40;99.90
37310;DHT22;23195;47.744;7.358;2022-12-10T19:08:55;1.40;99.90
37310;DHT22;23195;47.744;7.358;2022-12-10T19:11:25;1.30;99.90
37310;DHT22;23195;47.744;7.358;2022-12-10T19:13:51;1.30;99.90
37310;DHT22;23195;47.744;7.358;2022-12-10T19:16:20;1.30;99.90
37310;DHT22;23195;47.744;7.358;2022-12-10T19:18:55;1.30;99.90
37310;DHT22;23195;47.744;7.358;2022-12-10T19:21:22;1.30;99.90
37310;DHT22;23195;47.744;7.358;2022-12-10T19:23:51;1.20;99.90
37310;DHT22;23195;47.744;7.358;2022-12-10T19:26:23;0.80;99.90
37310;DHT22;23195;47.744;7.358;2022-12-10T19:28:56;1.10;99.90
37310;DHT22;23195;47.744;7.358;2022-12-10T19:31:25;1.40;99.90
37310;DHT22;23195;47.744;7.358;2022-12-10T19:33:51;1.10;99.90
37310;DHT22;23195;47.744;7.358;2022-12-10T19:36:26;1.10;99.90
37310;DHT22;23195;47.744;7.358;2022-12-10T19:38:53;1.00;99.90
37310;DHT22;23195;47.744;7.358;2022-12-10T19:41:19;1.00;99.90
37310;DHT22;23195;47.744;7.358;2022-12-10T19:43:45;0.90;99.90
37310;DHT22;23195;47.744;7.358;2022-12-10T19:46:23;0.80;99.90
37310;DHT22;23195;47.744;7.358;2022-12-10T19:48:51;0.90;99.90
37310;DHT22;23195;47.744;7.358;2022-12-10T19:51:18;0.80;99.90
37310;DHT22;23195;47.744;7.358;2022-12-10T19:53:44;0.70;99.90
37310;DHT22;23195;47.744;7.358;2022-12-10T19:58:49;0.80;99.90
37310;DHT22;23195;47.744;7.358;2022-12-10T20:01:19;0.70;99.90
37310;DHT22;23195;47.744;7.358;2022-12-10T20:03:45;-0.50;99.90
37310;DHT22;23195;47.744;7.358;2022-12-10T20:06:17;0.50;99.90
37310;DHT22;23195;47.744;7.358;2022-12-10T20:08:47;0.40;99.90
37310;DHT22;23195;47.744;7.358;2022-12-10T20:11:13;0.50;99.90
37310;DHT22;23195;47.744;7.358;2022-12-10T20:13:39;0.50;99.90
37310;DHT22;23195;47.744;7.358;2022-12-10T20:16:24;0.40;99.90
37310;DHT22;23195;47.744;7.358;2022-12-10T20:18:51;0.40;99.90
37310;DHT22;23195;47.744;7.358;2022-12-10T20:21:17;0.40;99.90
37310;DHT22;23195;47.744;7.358;2022-12-10T20:23:43;0.40;99.90
37310;DHT22;23195;47.744;7.358;2022-12-10T20:26:37;0.50;99.90
37310;DHT22;23195;47.744;7.358;2022-12-10T20:29:17;0.50;99.90
37310;DHT22;23195;47.744;7.358;2022-12-10T20:31:44;0.50;99.90
37310;DHT22;23195;47.744;7.358;2022-12-10T20:34:10;0.60;99.90
37310;DHT22;23195;47.744;7.358;2022-12-10T20:36:39;0.50;99.90
37310;DHT22;23195;47.744;7.358;2022-12-10T20:39:05;0.50;99.90
37310;DHT22;23195;47.744;7.358;2022-12-10T20:41:40;0.50;99.90
37310;DHT22;23195;47.744;7.358;2022-12-10T20:44:06;0.40;99.90
37310;DHT22;23195;47.744;7.358;2022-12-10T20:46:34;0.50;99.90
37310;DHT22;23195;47.744;7.358;2022-12-10T20:49:01;0.50;99.90
37310;DHT22;23195;47.744;7.358;2022-12-10T20:51:27;0.60;99.90
37310;DHT22;23195;47.744;7.358;2022-12-10T20:53:53;0.70;99.90
37310;DHT22;23195;47.744;7.358;2022-12-10T20:56:22;0.80;99.90
37310;DHT22;23195;47.744;7.358;2022-12-10T20:58:49;0.80;99.90
37310;DHT22;23195;47.744;7.358;2022-12-10T21:01:24;0.80;99.90
37310;DHT22;23195;47.744;7.358;2022-12-10T21:03:50;0.70;99.90
37310;DHT22;23195;47.744;7.358;2022-12-10T21:06:20;0.70;99.90
37310;DHT22;23195;47.744;7.358;2022-12-10T21:08:47;0.90;99.90
37310;DHT22;23195;47.744;7.358;2022-12-10T21:11:13;0.70;99.90
37310;DHT22;23195;47.744;7.358;2022-12-10T21:13:41;0.70;99.90
37310;DHT22;23195;47.744;7.358;2022-12-10T21:16:09;0.80;99.90
37310;DHT22;23195;47.744;7.358;2022-12-10T21:18:35;0.80;99.90
37310;DHT22;23195;47.744;7.358;2022-12-10T21:21:01;0.80;99.90
37310;DHT22;23195;47.744;7.358;2022-12-10T21:23:28;0.70;99.90
37310;DHT22;23195;47.744;7.358;2022-12-10T21:25:56;0.80;99.90
37310;DHT22;23195;47.744;7.358;2022-12-10T21:28:22;0.70;99.90
37310;DHT22;23195;47.744;7.358;2022-12-10T21:30:49;0.70;99.90
37310;DHT22;23195;47.744;7.358;2022-12-10T21:33:18;0.60;99.90
37310;DHT22;23195;47.744;7.358;2022-12-10T21:35:44;-0.20;99.90
37310;DHT22;23195;47.744;7.358;2022-12-10T21:38:12;0.60;99.90
37310;DHT22;23195;47.744;7.358;2022-12-10T21:40:41;0.50;99.90
37310;DHT22;23195;47.744;7.358;2022-12-10T21:43:18;0.50;99.90
37310;DHT22;23195;47.744;7.358;2022-12-10T21:45:50;0.50;99.90
37310;DHT22;23195;47.744;7.358;2022-12-10T21:48:21;0.30;99.90
37310;DHT22;23195;47.744;7.358;2022-12-10T21:50:58;0.30;99.90
37310;DHT22;23195;47.744;7.358;2022-12-10T21:53:30;0.30;99.90
37310;DHT22;23195;47.744;7.358;2022-12-10T21:56:03;0.30;99.90
37310;DHT22;23195;47.744;7.358;2022-12-10T21:58:29;-0.50;99.90
37310;DHT22;23195;47.744;7.358;2022-12-10T22:01:19;0.40;99.90
37310;DHT22;23195;47.744;7.358;2022-12-10T22:03:45;0.50;99.90
37310;DHT22;23195;47.744;7.358;2022-12-10T22:06:23;0.60;99.90
37310;DHT22;23195;47.744;7.358;2022-12-10T22:08:51;0.60;99.90
37310;DHT22;23195;47.744;7.358;2022-12-10T22:11:20;-0.50;99.90
37310;DHT22;23195;47.744;7.358;2022-12-10T22:13:53;0.20;99.90
37310;DHT22;23195;47.744;7.358;2022-12-10T22:16:19;0.50;99.90
37310;DHT22;23195;47.744;7.358;2022-12-10T22:18:55;0.50;99.90
37310;DHT22;23195;47.744;7.358;2022-12-10T22:21:31;0.50;99.90
37310;DHT22;23195;47.744;7.358;2022-12-10T22:23:57;0.40;99.90
37310;DHT22;23195;47.744;7.358;2022-12-10T22:26:25;0.40;99.90
37310;DHT22;23195;47.744;7.358;2022-12-10T22:29:00;0.30;99.90
37310;DHT22;23195;47.744;7.358;2022-12-10T22:31:29;0.50;99.90
37310;DHT22;23195;47.744;7.358;2022-12-10T22:33:54;0.40;99.90
37310;DHT22;23195;47.744;7.358;2022-12-10T22:36:20;0.20;99.90
37310;DHT22;23195;47.744;7.358;2022-12-10T22:38:49;0.00;99.90
37310;DHT22;23195;47.744;7.358;2022-12-10T22:41:18;-0.10;99.90
37310;DHT22;23195;47.744;7.358;2022-12-10T22:43:46;-0.20;99.90
37310;DHT22;23195;47.744;7.358;2022-12-10T22:46:15;-0.30;99.90
37310;DHT22;23195;47.744;7.358;2022-12-10T22:48:41;-0.40;99.90
37310;DHT22;23195;47.744;7.358;2022-12-10T22:51:08;-0.40;99.90
37310;DHT22;23195;47.744;7.358;2022-12-10T22:53:34;-0.50;99.90
37310;DHT22;23195;47.744;7.358;2022-12-10T22:56:03;-1.50;99.90
37310;DHT22;23195;47.744;7.358;2022-12-10T22:58:29;-0.60;99.90
37310;DHT22;23195;47.744;7.358;2022-12-10T23:00:56;-0.70;99.90
37310;DHT22;23195;47.744;7.358;2022-12-10T23:03:23;-0.60;99.90
37310;DHT22;23195;47.744;7.358;2022-12-10T23:06:13;-0.70;99.90
37310;DHT22;23195;47.744;7.358;2022-12-10T23:08:42;-0.60;99.90
37310;DHT22;23195;47.744;7.358;2022-12-10T23:11:12;-0.50;99.90
37310;DHT22;23195;47.744;7.358;2022-12-10T23:13:43;-0.40;99.90
37310;DHT22;23195;47.744;7.358;2022-12-10T23:16:12;-0.40;99.90
37310;DHT22;23195;47.744;7.358;2022-12-10T23:18:39;-0.30;99.90
37310;DHT22;23195;47.744;7.358;2022-12-10T23:21:15;-0.20;99.90
37310;DHT22;23195;47.744;7.358;2022-12-10T23:23:42;0.00;99.90
37310;DHT22;23195;47.744;7.358;2022-12-10T23:26:07;-0.10;99.90
37310;DHT22;23195;47.744;7.358;2022-12-10T23:28:42;-0.10;99.90
37310;DHT22;23195;47.744;7.358;2022-12-10T23:31:08;-0.10;99.90
37310;DHT22;23195;47.744;7.358;2022-12-10T23:33:36;-0.10;99.90
37310;DHT22;23195;47.744;7.358;2022-12-10T23:36:07;-0.10;99.90
37310;DHT22;23195;47.744;7.358;2022-12-10T23:38:34;-0.10;99.90
37310;DHT22;23195;47.744;7.358;2022-12-10T23:41:10;-0.10;99.90
37310;DHT22;23195;47.744;7.358;2022-12-10T23:43:36;-0.20;99.90
37310;DHT22;23195;47.744;7.358;2022-12-10T23:46:04;-0.50;99.90
37310;DHT22;23195;47.744;7.358;2022-12-10T23:48:30;-0.30;99.90
37310;DHT22;23195;47.744;7.358;2022-12-10T23:51:00;-0.30;99.90
37310;DHT22;23195;47.744;7.358;2022-12-10T23:53:26;-0.40;99.90
37310;DHT22;23195;47.744;7.358;2022-12-10T23:55:53;-0.50;99.90
37310;DHT22;23195;47.744;7.358;2022-12-10T23:58:22;-0.50;99.90
